sensor_id;sensor_type;location;lat;lon;timestamp;P1;P2;P0
77538;PMS7003;67783;51.656;16.106;2024-01-30T00:00:23;14;13;9
77538;PMS7003;67783;51.656;16.106;2024-01-30T00:03:30;16;14;9
77538;PMS7003;67783;51.656;16.106;2024-01-30T00:06:31;23;18;11
77538;PMS7003;67783;51.656;16.106;2024-01-30T00:09:41;17;11;7
77538;PMS7003;67783;51.656;16.106;2024-01-30T00:12:42;13;13;9
77538;PMS7003;67783;51.656;16.106;2024-01-30T00:15:44;14;12;10
77538;PMS7003;67783;51.656;16.106;2024-01-30T00:18:45;13;10;8
77538;PMS7003;67783;51.656;16.106;2024-01-30T00:21:47;24;16;10
77538;PMS7003;67783;51.656;16.106;2024-01-30T00:24:49;14;13;8
77538;PMS7003;67783;51.656;16.106;2024-01-30T00:27:50;11;11;8
77538;PMS7003;67783;51.656;16.106;2024-01-30T00:30:56;12;12;8
77538;PMS7003;67783;51.656;16.106;2024-01-30T00:33:57;16;13;8
77538;PMS7003;67783;51.656;16.106;2024-01-30T00:36:59;13;9;6
77538;PMS7003;67783;51.656;16.106;2024-01-30T00:40:00;15;12;7
77538;PMS7003;67783;51.656;16.106;2024-01-30T00:43:02;15;10;8
77538;PMS7003;67783;51.656;16.106;2024-01-30T00:46:04;12;12;8
77538;PMS7003;67783;51.656;16.106;2024-01-30T00:49:06;14;10;7
77538;PMS7003;67783;51.656;16.106;2024-01-30T00:52:11;18;13;9
77538;PMS7003;67783;51.656;16.106;2024-01-30T00:55:12;14;11;9
77538;PMS7003;67783;51.656;16.106;2024-01-30T00:58:15;13;11;6
77538;PMS7003;67783;51.656;16.106;2024-01-30T01:01:16;13;13;9
77538;PMS7003;67783;51.656;16.106;2024-01-30T01:04:18;10;8;6
77538;PMS7003;67783;51.656;16.106;2024-01-30T01:07:32;13;10;6
77538;PMS7003;67783;51.656;16.106;2024-01-30T01:10:33;18;10;6
77538;PMS7003;67783;51.656;16.106;2024-01-30T01:13:35;8;8;6
77538;PMS7003;67783;51.656;16.106;2024-01-30T01:16:36;14;12;10
77538;PMS7003;67783;51.656;16.106;2024-01-30T01:19:38;11;11;8
77538;PMS7003;67783;51.656;16.106;2024-01-30T01:22:40;6;4;3
77538;PMS7003;67783;51.656;16.106;2024-01-30T01:25:42;10;9;8
77538;PMS7003;67783;51.656;16.106;2024-01-30T01:28:47;12;9;6
77538;PMS7003;67783;51.656;16.106;2024-01-30T01:31:49;11;10;8
77538;PMS7003;67783;51.656;16.106;2024-01-30T01:34:51;13;9;7
77538;PMS7003;67783;51.656;16.106;2024-01-30T01:37:53;9;8;5
77538;PMS7003;67783;51.656;16.106;2024-01-30T01:41:00;14;11;7
77538;PMS7003;67783;51.656;16.106;2024-01-30T01:44:08;12;9;6
77538;PMS7003;67783;51.656;16.106;2024-01-30T01:47:10;15;11;7
77538;PMS7003;67783;51.656;16.106;2024-01-30T01:50:15;12;11;8
77538;PMS7003;67783;51.656;16.106;2024-01-30T01:53:19;22;15;12
77538;PMS7003;67783;51.656;16.106;2024-01-30T01:56:22;14;11;7
77538;PMS7003;67783;51.656;16.106;2024-01-30T01:59:29;10;10;8
77538;PMS7003;67783;51.656;16.106;2024-01-30T02:02:30;16;8;6
77538;PMS7003;67783;51.656;16.106;2024-01-30T02:05:38;12;10;7
77538;PMS7003;67783;51.656;16.106;2024-01-30T02:08:40;14;12;9
77538;PMS7003;67783;51.656;16.106;2024-01-30T02:11:43;9;8;7
77538;PMS7003;67783;51.656;16.106;2024-01-30T02:14:49;14;10;6
77538;PMS7003;67783;51.656;16.106;2024-01-30T02:17:51;12;11;9
77538;PMS7003;67783;51.656;16.106;2024-01-30T02:20:54;12;10;6
77538;PMS7003;67783;51.656;16.106;2024-01-30T02:23:59;14;11;9
77538;PMS7003;67783;51.656;16.106;2024-01-30T02:27:02;10;9;7
77538;PMS7003;67783;51.656;16.106;2024-01-30T02:30:11;13;8;6
77538;PMS7003;67783;51.656;16.106;2024-01-30T02:33:13;11;9;6
77538;PMS7003;67783;51.656;16.106;2024-01-30T02:36:15;12;11;7
77538;PMS7003;67783;51.656;16.106;2024-01-30T02:39:16;10;9;5
77538;PMS7003;67783;51.656;16.106;2024-01-30T02:42:18;8;6;4
77538;PMS7003;67783;51.656;16.106;2024-01-30T02:45:19;11;9;5
77538;PMS7003;67783;51.656;16.106;2024-01-30T02:48:21;9;8;4
77538;PMS7003;67783;51.656;16.106;2024-01-30T02:51:26;17;11;7
77538;PMS7003;67783;51.656;16.106;2024-01-30T02:54:27;12;9;7
77538;PMS7003;67783;51.656;16.106;2024-01-30T02:57:31;10;9;6
77538;PMS7003;67783;51.656;16.106;2024-01-30T03:00:33;11;8;5
77538;PMS7003;67783;51.656;16.106;2024-01-30T03:03:35;12;11;7
77538;PMS7003;67783;51.656;16.106;2024-01-30T03:06:47;11;6;4
77538;PMS7003;67783;51.656;16.106;2024-01-30T03:09:49;11;10;8
77538;PMS7003;67783;51.656;16.106;2024-01-30T03:12:50;15;10;8
77538;PMS7003;67783;51.656;16.106;2024-01-30T03:15:52;8;8;7
77538;PMS7003;67783;51.656;16.106;2024-01-30T03:18:53;8;8;6
77538;PMS7003;67783;51.656;16.106;2024-01-30T03:21:55;10;10;5
77538;PMS7003;67783;51.656;16.106;2024-01-30T03:24:56;8;8;6
77538;PMS7003;67783;51.656;16.106;2024-01-30T03:28:02;14;11;6
77538;PMS7003;67783;51.656;16.106;2024-01-30T03:31:04;15;11;6
77538;PMS7003;67783;51.656;16.106;2024-01-30T03:34:05;15;11;8
77538;PMS7003;67783;51.656;16.106;2024-01-30T03:37:10;11;10;7
77538;PMS7003;67783;51.656;16.106;2024-01-30T03:40:12;11;10;8
77538;PMS7003;67783;51.656;16.106;2024-01-30T03:43:22;10;9;6
77538;PMS7003;67783;51.656;16.106;2024-01-30T03:46:24;18;13;8
77538;PMS7003;67783;51.656;16.106;2024-01-30T03:49:25;11;8;6
77538;PMS7003;67783;51.656;16.106;2024-01-30T03:52:27;20;14;7
77538;PMS7003;67783;51.656;16.106;2024-01-30T03:55:28;15;11;8
77538;PMS7003;67783;51.656;16.106;2024-01-30T03:58:30;14;8;6
77538;PMS7003;67783;51.656;16.106;2024-01-30T04:01:31;16;14;7
77538;PMS7003;67783;51.656;16.106;2024-01-30T04:04:37;18;13;7
77538;PMS7003;67783;51.656;16.106;2024-01-30T04:07:39;10;9;6
77538;PMS7003;67783;51.656;16.106;2024-01-30T04:10:41;11;8;5
77538;PMS7003;67783;51.656;16.106;2024-01-30T04:13:42;17;13;7
77538;PMS7003;67783;51.656;16.106;2024-01-30T04:16:44;13;11;7
77538;PMS7003;67783;51.656;16.106;2024-01-30T04:19:46;11;9;6
77538;PMS7003;67783;51.656;16.106;2024-01-30T04:22:47;14;10;6
77538;PMS7003;67783;51.656;16.106;2024-01-30T04:25:52;10;9;6
77538;PMS7003;67783;51.656;16.106;2024-01-30T04:28:54;7;7;4
77538;PMS7003;67783;51.656;16.106;2024-01-30T04:31:56;12;8;5
77538;PMS7003;67783;51.656;16.106;2024-01-30T04:34:57;13;9;6
77538;PMS7003;67783;51.656;16.106;2024-01-30T04:37:59;8;6;5
77538;PMS7003;67783;51.656;16.106;2024-01-30T04:41:00;9;8;5
77538;PMS7003;67783;51.656;16.106;2024-01-30T04:44:02;10;6;4
77538;PMS7003;67783;51.656;16.106;2024-01-30T04:47:07;14;10;7
77538;PMS7003;67783;51.656;16.106;2024-01-30T04:50:13;9;8;6
77538;PMS7003;67783;51.656;16.106;2024-01-30T04:53:14;11;8;6
77538;PMS7003;67783;51.656;16.106;2024-01-30T04:56:16;12;10;7
77538;PMS7003;67783;51.656;16.106;2024-01-30T04:59:18;9;8;5
77538;PMS7003;67783;51.656;16.106;2024-01-30T05:02:28;11;9;6
77538;PMS7003;67783;51.656;16.106;2024-01-30T05:05:30;10;7;5
77538;PMS7003;67783;51.656;16.106;2024-01-30T05:08:31;13;11;6
77538;PMS7003;67783;51.656;16.106;2024-01-30T05:14:41;8;8;6
77538;PMS7003;67783;51.656;16.106;2024-01-30T05:17:49;9;9;7
77538;PMS7003;67783;51.656;16.106;2024-01-30T05:20:51;14;8;6
77538;PMS7003;67783;51.656;16.106;2024-01-30T05:23:52;7;7;5
77538;PMS7003;67783;51.656;16.106;2024-01-30T05:26:54;13;8;6
77538;PMS7003;67783;51.656;16.106;2024-01-30T05:29:55;7;6;5
77538;PMS7003;67783;51.656;16.106;2024-01-30T05:32:57;8;7;6
77538;PMS7003;67783;51.656;16.106;2024-01-30T05:35:58;7;6;4
77538;PMS7003;67783;51.656;16.106;2024-01-30T05:39:04;5;4;3
77538;PMS7003;67783;51.656;16.106;2024-01-30T05:42:06;6;5;3
77538;PMS7003;67783;51.656;16.106;2024-01-30T05:45:08;5;4;3
77538;PMS7003;67783;51.656;16.106;2024-01-30T05:48:10;8;5;4
77538;PMS7003;67783;51.656;16.106;2024-01-30T05:51:11;7;6;5
77538;PMS7003;67783;51.656;16.106;2024-01-30T05:54:13;6;6;4
77538;PMS7003;67783;51.656;16.106;2024-01-30T05:57:14;9;6;4
77538;PMS7003;67783;51.656;16.106;2024-01-30T06:00:19;8;7;5
77538;PMS7003;67783;51.656;16.106;2024-01-30T06:03:21;13;7;6
77538;PMS7003;67783;51.656;16.106;2024-01-30T06:06:22;8;6;4
77538;PMS7003;67783;51.656;16.106;2024-01-30T06:09:24;9;9;7
77538;PMS7003;67783;51.656;16.106;2024-01-30T06:12:25;11;6;5
77538;PMS7003;67783;51.656;16.106;2024-01-30T06:15:28;10;10;6
77538;PMS7003;67783;51.656;16.106;2024-01-30T06:18:30;11;10;7
77538;PMS7003;67783;51.656;16.106;2024-01-30T06:21:35;16;13;8
77538;PMS7003;67783;51.656;16.106;2024-01-30T06:24:38;11;11;7
77538;PMS7003;67783;51.656;16.106;2024-01-30T06:27:42;15;9;5
77538;PMS7003;67783;51.656;16.106;2024-01-30T06:30:44;18;11;7
77538;PMS7003;67783;51.656;16.106;2024-01-30T06:33:49;9;6;5
77538;PMS7003;67783;51.656;16.106;2024-01-30T06:36:56;10;9;6
77538;PMS7003;67783;51.656;16.106;2024-01-30T06:39:57;11;8;5
77538;PMS7003;67783;51.656;16.106;2024-01-30T06:42:59;13;9;5
77538;PMS7003;67783;51.656;16.106;2024-01-30T06:46:01;9;5;3
77538;PMS7003;67783;51.656;16.106;2024-01-30T06:49:03;11;10;6
77538;PMS7003;67783;51.656;16.106;2024-01-30T06:52:05;10;9;7
77538;PMS7003;67783;51.656;16.106;2024-01-30T06:55:07;21;16;12
77538;PMS7003;67783;51.656;16.106;2024-01-30T06:58:12;9;8;4
77538;PMS7003;67783;51.656;16.106;2024-01-30T07:01:14;6;5;3
77538;PMS7003;67783;51.656;16.106;2024-01-30T07:04:16;12;12;8
77538;PMS7003;67783;51.656;16.106;2024-01-30T07:07:19;10;9;6
77538;PMS7003;67783;51.656;16.106;2024-01-30T07:10:21;14;13;9
77538;PMS7003;67783;51.656;16.106;2024-01-30T07:13:33;15;13;8
77538;PMS7003;67783;51.656;16.106;2024-01-30T07:16:35;13;12;9
77538;PMS7003;67783;51.656;16.106;2024-01-30T07:19:37;25;14;8
77538;PMS7003;67783;51.656;16.106;2024-01-30T07:26:13;20;17;10
77538;PMS7003;67783;51.656;16.106;2024-01-30T07:30:03;19;18;10
77538;PMS7003;67783;51.656;16.106;2024-01-30T07:36:52;18;14;9
77538;PMS7003;67783;51.656;16.106;2024-01-30T07:40:14;20;15;9
77538;PMS7003;67783;51.656;16.106;2024-01-30T07:50:32;20;14;8
77538;PMS7003;67783;51.656;16.106;2024-01-30T08:01:20;9;9;6
77538;PMS7003;67783;51.656;16.106;2024-01-30T08:11:26;16;10;8
77538;PMS7003;67783;51.656;16.106;2024-01-30T08:18:21;8;8;6
77538;PMS7003;67783;51.656;16.106;2024-01-30T08:29:06;10;9;5
77538;PMS7003;67783;51.656;16.106;2024-01-30T08:35:48;14;10;6
77538;PMS7003;67783;51.656;16.106;2024-01-30T08:42:26;13;11;8
77538;PMS7003;67783;51.656;16.106;2024-01-30T08:46:17;14;11;9
77538;PMS7003;67783;51.656;16.106;2024-01-30T08:49:07;15;12;8
77538;PMS7003;67783;51.656;16.106;2024-01-30T08:52:40;15;13;8
77538;PMS7003;67783;51.656;16.106;2024-01-30T08:59:16;14;12;9
77538;PMS7003;67783;51.656;16.106;2024-01-30T09:02:32;9;8;6
77538;PMS7003;67783;51.656;16.106;2024-01-30T09:16:46;16;10;8
77538;PMS7003;67783;51.656;16.106;2024-01-30T09:20:01;10;9;6
77538;PMS7003;67783;51.656;16.106;2024-01-30T09:23:41;10;7;6
77538;PMS7003;67783;51.656;16.106;2024-01-30T09:27:14;4;4;2
77538;PMS7003;67783;51.656;16.106;2024-01-30T09:33:46;9;9;5
77538;PMS7003;67783;51.656;16.106;2024-01-30T09:54:26;14;12;8
77538;PMS7003;67783;51.656;16.106;2024-01-30T10:04:35;11;9;7
77538;PMS7003;67783;51.656;16.106;2024-01-30T10:18:23;14;11;6
77538;PMS7003;67783;51.656;16.106;2024-01-30T10:21:34;11;11;7
77538;PMS7003;67783;51.656;16.106;2024-01-30T10:25:07;5;5;2
77538;PMS7003;67783;51.656;16.106;2024-01-30T10:28:26;8;8;6
77538;PMS7003;67783;51.656;16.106;2024-01-30T10:31:35;13;10;6
77538;PMS7003;67783;51.656;16.106;2024-01-30T10:34:46;17;10;6
77538;PMS7003;67783;51.656;16.106;2024-01-30T10:37:51;12;10;7
77538;PMS7003;67783;51.656;16.106;2024-01-30T10:40:53;15;10;8
77538;PMS7003;67783;51.656;16.106;2024-01-30T10:47:28;12;11;8
77538;PMS7003;67783;51.656;16.106;2024-01-30T10:50:35;16;13;8
77538;PMS7003;67783;51.656;16.106;2024-01-30T10:53:41;12;9;7
77538;PMS7003;67783;51.656;16.106;2024-01-30T10:58:01;14;13;10
77538;PMS7003;67783;51.656;16.106;2024-01-30T11:08:00;12;9;8
77538;PMS7003;67783;51.656;16.106;2024-01-30T11:11:10;10;9;6
77538;PMS7003;67783;51.656;16.106;2024-01-30T11:14:12;13;11;8
77538;PMS7003;67783;51.656;16.106;2024-01-30T11:17:27;11;9;7
77538;PMS7003;67783;51.656;16.106;2024-01-30T11:20:29;15;11;7
77538;PMS7003;67783;51.656;16.106;2024-01-30T11:23:38;13;12;9
77538;PMS7003;67783;51.656;16.106;2024-01-30T11:26:41;13;12;7
77538;PMS7003;67783;51.656;16.106;2024-01-30T11:29:43;11;11;7
77538;PMS7003;67783;51.656;16.106;2024-01-30T11:36:09;15;12;7
77538;PMS7003;67783;51.656;16.106;2024-01-30T11:49:57;19;11;7
77538;PMS7003;67783;51.656;16.106;2024-01-30T11:53:20;15;13;8
77538;PMS7003;67783;51.656;16.106;2024-01-30T11:56:43;12;7;5
77538;PMS7003;67783;51.656;16.106;2024-01-30T11:59:45;16;11;6
77538;PMS7003;67783;51.656;16.106;2024-01-30T12:06:22;6;6;5
77538;PMS7003;67783;51.656;16.106;2024-01-30T12:09:24;9;8;5
77538;PMS7003;67783;51.656;16.106;2024-01-30T12:12:58;7;6;5
77538;PMS7003;67783;51.656;16.106;2024-01-30T12:16:29;10;10;5
77538;PMS7003;67783;51.656;16.106;2024-01-30T12:26:56;9;5;4
77538;PMS7003;67783;51.656;16.106;2024-01-30T12:30:24;10;7;5
77538;PMS7003;67783;51.656;16.106;2024-01-30T12:34:01;11;8;6
77538;PMS7003;67783;51.656;16.106;2024-01-30T12:37:12;9;9;6
77538;PMS7003;67783;51.656;16.106;2024-01-30T12:40:19;9;9;5
77538;PMS7003;67783;51.656;16.106;2024-01-30T12:47:12;9;6;5
77538;PMS7003;67783;51.656;16.106;2024-01-30T12:50:17;8;8;5
77538;PMS7003;67783;51.656;16.106;2024-01-30T12:53:23;10;10;7
77538;PMS7003;67783;51.656;16.106;2024-01-30T12:56:24;10;6;4
77538;PMS7003;67783;51.656;16.106;2024-01-30T12:59:26;13;11;6
77538;PMS7003;67783;51.656;16.106;2024-01-30T13:02:30;7;6;3
77538;PMS7003;67783;51.656;16.106;2024-01-30T13:05:48;12;10;7
77538;PMS7003;67783;51.656;16.106;2024-01-30T13:09:09;11;10;8
77538;PMS7003;67783;51.656;16.106;2024-01-30T13:12:41;10;8;6
77538;PMS7003;67783;51.656;16.106;2024-01-30T13:15:59;14;9;6
77538;PMS7003;67783;51.656;16.106;2024-01-30T13:19:06;15;10;7
77538;PMS7003;67783;51.656;16.106;2024-01-30T13:22:11;6;6;4
77538;PMS7003;67783;51.656;16.106;2024-01-30T13:28:31;11;11;7
77538;PMS7003;67783;51.656;16.106;2024-01-30T13:31:46;13;11;8
77538;PMS7003;67783;51.656;16.106;2024-01-30T13:34:48;10;8;6
77538;PMS7003;67783;51.656;16.106;2024-01-30T13:37:56;12;11;10
77538;PMS7003;67783;51.656;16.106;2024-01-30T13:41:08;11;6;5
77538;PMS7003;67783;51.656;16.106;2024-01-30T13:51:44;12;11;6
77538;PMS7003;67783;51.656;16.106;2024-01-30T13:58:21;11;10;8
77538;PMS7003;67783;51.656;16.106;2024-01-30T14:01:25;10;9;6
77538;PMS7003;67783;51.656;16.106;2024-01-30T14:04:50;13;11;6
77538;PMS7003;67783;51.656;16.106;2024-01-30T14:07:56;16;13;9
77538;PMS7003;67783;51.656;16.106;2024-01-30T14:18:08;13;11;8
77538;PMS7003;67783;51.656;16.106;2024-01-30T14:21:30;12;12;9
77538;PMS7003;67783;51.656;16.106;2024-01-30T14:24:45;14;12;7
77538;PMS7003;67783;51.656;16.106;2024-01-30T14:28:10;11;9;5
77538;PMS7003;67783;51.656;16.106;2024-01-30T14:31:17;16;13;10
77538;PMS7003;67783;51.656;16.106;2024-01-30T14:34:41;20;18;13
77538;PMS7003;67783;51.656;16.106;2024-01-30T14:38:00;17;15;11
77538;PMS7003;67783;51.656;16.106;2024-01-30T14:44:56;24;18;13
77538;PMS7003;67783;51.656;16.106;2024-01-30T14:48:06;17;15;10
77538;PMS7003;67783;51.656;16.106;2024-01-30T14:51:26;15;15;10
77538;PMS7003;67783;51.656;16.106;2024-01-30T14:54:46;22;21;12
77538;PMS7003;67783;51.656;16.106;2024-01-30T14:57:59;28;24;15
77538;PMS7003;67783;51.656;16.106;2024-01-30T15:04:35;25;22;15
77538;PMS7003;67783;51.656;16.106;2024-01-30T15:18:26;41;33;19
77538;PMS7003;67783;51.656;16.106;2024-01-30T15:21:48;26;22;14
77538;PMS7003;67783;51.656;16.106;2024-01-30T15:28:33;34;29;18
77538;PMS7003;67783;51.656;16.106;2024-01-30T15:31:40;38;27;16
77538;PMS7003;67783;51.656;16.106;2024-01-30T15:34:41;27;25;17
77538;PMS7003;67783;51.656;16.106;2024-01-30T15:37:43;38;32;20
77538;PMS7003;67783;51.656;16.106;2024-01-30T15:40:45;42;32;20
77538;PMS7003;67783;51.656;16.106;2024-01-30T15:43:50;37;28;18
77538;PMS7003;67783;51.656;16.106;2024-01-30T15:47:13;29;27;18
77538;PMS7003;67783;51.656;16.106;2024-01-30T15:50:27;28;23;17
77538;PMS7003;67783;51.656;16.106;2024-01-30T15:53:38;33;28;18
77538;PMS7003;67783;51.656;16.106;2024-01-30T15:56:51;22;22;14
77538;PMS7003;67783;51.656;16.106;2024-01-30T15:59:56;43;36;22
77538;PMS7003;67783;51.656;16.106;2024-01-30T16:02:58;51;40;25
77538;PMS7003;67783;51.656;16.106;2024-01-30T16:06:04;45;33;17
77538;PMS7003;67783;51.656;16.106;2024-01-30T16:09:23;34;28;17
77538;PMS7003;67783;51.656;16.106;2024-01-30T16:12:38;21;20;11
77538;PMS7003;67783;51.656;16.106;2024-01-30T16:19:27;28;25;15
77538;PMS7003;67783;51.656;16.106;2024-01-30T16:26:14;21;21;13
77538;PMS7003;67783;51.656;16.106;2024-01-30T16:29:23;26;18;13
77538;PMS7003;67783;51.656;16.106;2024-01-30T16:32:45;14;12;9
77538;PMS7003;67783;51.656;16.106;2024-01-30T16:36:09;29;23;16
77538;PMS7003;67783;51.656;16.106;2024-01-30T16:39:34;43;29;17
77538;PMS7003;67783;51.656;16.106;2024-01-30T16:42:48;24;22;14
77538;PMS7003;67783;51.656;16.106;2024-01-30T16:46:00;24;21;11
77538;PMS7003;67783;51.656;16.106;2024-01-30T16:49:05;23;22;13
77538;PMS7003;67783;51.656;16.106;2024-01-30T16:52:06;24;22;16
77538;PMS7003;67783;51.656;16.106;2024-01-30T16:55:08;20;17;11
77538;PMS7003;67783;51.656;16.106;2024-01-30T16:58:09;44;31;17
77538;PMS7003;67783;51.656;16.106;2024-01-30T17:01:12;28;20;13
77538;PMS7003;67783;51.656;16.106;2024-01-30T17:04:17;31;28;15
77538;PMS7003;67783;51.656;16.106;2024-01-30T17:07:22;33;26;15
77538;PMS7003;67783;51.656;16.106;2024-01-30T17:14:06;34;25;16
77538;PMS7003;67783;51.656;16.106;2024-01-30T17:20:35;23;20;14
77538;PMS7003;67783;51.656;16.106;2024-01-30T17:23:46;22;18;10
77538;PMS7003;67783;51.656;16.106;2024-01-30T17:26:48;16;15;10
77538;PMS7003;67783;51.656;16.106;2024-01-30T17:29:50;17;14;9
77538;PMS7003;67783;51.656;16.106;2024-01-30T17:32:52;21;20;12
77538;PMS7003;67783;51.656;16.106;2024-01-30T17:35:54;19;18;11
77538;PMS7003;67783;51.656;16.106;2024-01-30T17:38:55;20;13;9
77538;PMS7003;67783;51.656;16.106;2024-01-30T17:41:57;22;21;14
77538;PMS7003;67783;51.656;16.106;2024-01-30T17:45:02;25;22;14
77538;PMS7003;67783;51.656;16.106;2024-01-30T17:48:07;23;22;15
77538;PMS7003;67783;51.656;16.106;2024-01-30T17:51:09;30;23;15
77538;PMS7003;67783;51.656;16.106;2024-01-30T17:54:10;25;21;15
77538;PMS7003;67783;51.656;16.106;2024-01-30T17:57:12;25;22;14
77538;PMS7003;67783;51.656;16.106;2024-01-30T18:00:22;17;15;9
77538;PMS7003;67783;51.656;16.106;2024-01-30T18:03:25;20;16;12
77538;PMS7003;67783;51.656;16.106;2024-01-30T18:06:27;15;11;8
77538;PMS7003;67783;51.656;16.106;2024-01-30T18:09:29;14;14;9
77538;PMS7003;67783;51.656;16.106;2024-01-30T18:12:31;14;11;8
77538;PMS7003;67783;51.656;16.106;2024-01-30T18:15:43;12;9;6
77538;PMS7003;67783;51.656;16.106;2024-01-30T18:18:45;14;10;5
77538;PMS7003;67783;51.656;16.106;2024-01-30T18:21:46;9;9;6
77538;PMS7003;67783;51.656;16.106;2024-01-30T18:24:48;11;10;8
77538;PMS7003;67783;51.656;16.106;2024-01-30T18:27:53;12;11;8
77538;PMS7003;67783;51.656;16.106;2024-01-30T18:31:04;13;11;8
77538;PMS7003;67783;51.656;16.106;2024-01-30T18:34:05;12;12;9
77538;PMS7003;67783;51.656;16.106;2024-01-30T18:37:07;13;12;8
77538;PMS7003;67783;51.656;16.106;2024-01-30T18:40:11;16;10;7
77538;PMS7003;67783;51.656;16.106;2024-01-30T18:43:13;11;8;5
77538;PMS7003;67783;51.656;16.106;2024-01-30T18:46:25;10;8;6
77538;PMS7003;67783;51.656;16.106;2024-01-30T18:49:26;6;6;5
77538;PMS7003;67783;51.656;16.106;2024-01-30T18:52:28;7;7;5
77538;PMS7003;67783;51.656;16.106;2024-01-30T18:55:32;11;9;6
77538;PMS7003;67783;51.656;16.106;2024-01-30T18:58:37;10;7;5
77538;PMS7003;67783;51.656;16.106;2024-01-30T19:01:45;7;6;5
77538;PMS7003;67783;51.656;16.106;2024-01-30T19:04:50;8;7;4
77538;PMS7003;67783;51.656;16.106;2024-01-30T19:07:53;13;10;6
77538;PMS7003;67783;51.656;16.106;2024-01-30T19:10:55;10;9;6
77538;PMS7003;67783;51.656;16.106;2024-01-30T19:13:56;6;6;5
77538;PMS7003;67783;51.656;16.106;2024-01-30T19:17:06;8;7;5
77538;PMS7003;67783;51.656;16.106;2024-01-30T19:20:11;17;9;6
77538;PMS7003;67783;51.656;16.106;2024-01-30T19:23:14;11;11;7
77538;PMS7003;67783;51.656;16.106;2024-01-30T19:26:18;9;8;6
77538;PMS7003;67783;51.656;16.106;2024-01-30T19:29:19;7;7;5
77538;PMS7003;67783;51.656;16.106;2024-01-30T19:32:27;11;8;6
77538;PMS7003;67783;51.656;16.106;2024-01-30T19:35:28;10;10;8
77538;PMS7003;67783;51.656;16.106;2024-01-30T19:38:30;14;11;8
77538;PMS7003;67783;51.656;16.106;2024-01-30T19:41:31;10;8;6
77538;PMS7003;67783;51.656;16.106;2024-01-30T19:44:34;11;9;7
77538;PMS7003;67783;51.656;16.106;2024-01-30T19:47:36;9;8;5
77538;PMS7003;67783;51.656;16.106;2024-01-30T19:50:38;10;9;6
77538;PMS7003;67783;51.656;16.106;2024-01-30T19:53:42;8;7;5
77538;PMS7003;67783;51.656;16.106;2024-01-30T19:56:44;9;8;6
77538;PMS7003;67783;51.656;16.106;2024-01-30T19:59:46;11;10;6
77538;PMS7003;67783;51.656;16.106;2024-01-30T20:02:47;15;9;7
77538;PMS7003;67783;51.656;16.106;2024-01-30T20:05:49;8;8;5
77538;PMS7003;67783;51.656;16.106;2024-01-30T20:08:51;14;8;6
77538;PMS7003;67783;51.656;16.106;2024-01-30T20:11:54;12;9;7
77538;PMS7003;67783;51.656;16.106;2024-01-30T20:14:59;13;12;8
77538;PMS7003;67783;51.656;16.106;2024-01-30T20:18:01;19;13;8
77538;PMS7003;67783;51.656;16.106;2024-01-30T20:21:03;9;9;7
77538;PMS7003;67783;51.656;16.106;2024-01-30T20:24:05;10;9;7
77538;PMS7003;67783;51.656;16.106;2024-01-30T20:27:09;14;8;6
77538;PMS7003;67783;51.656;16.106;2024-01-30T20:30:20;16;12;8
77538;PMS7003;67783;51.656;16.106;2024-01-30T20:33:23;12;6;5
77538;PMS7003;67783;51.656;16.106;2024-01-30T20:36:25;8;8;6
77538;PMS7003;67783;51.656;16.106;2024-01-30T20:39:29;12;11;6
77538;PMS7003;67783;51.656;16.106;2024-01-30T20:42:31;10;9;5
77538;PMS7003;67783;51.656;16.106;2024-01-30T20:45:40;9;8;6
77538;PMS7003;67783;51.656;16.106;2024-01-30T20:48:42;9;7;5
77538;PMS7003;67783;51.656;16.106;2024-01-30T20:51:47;10;8;5
77538;PMS7003;67783;51.656;16.106;2024-01-30T20:54:54;11;11;7
77538;PMS7003;67783;51.656;16.106;2024-01-30T20:57:56;8;8;6
77538;PMS7003;67783;51.656;16.106;2024-01-30T21:01:01;9;8;6
77538;PMS7003;67783;51.656;16.106;2024-01-30T21:04:03;15;9;6
77538;PMS7003;67783;51.656;16.106;2024-01-30T21:07:05;12;11;7
77538;PMS7003;67783;51.656;16.106;2024-01-30T21:10:07;8;8;6
77538;PMS7003;67783;51.656;16.106;2024-01-30T21:13:09;12;11;8
77538;PMS7003;67783;51.656;16.106;2024-01-30T21:16:11;19;13;9
77538;PMS7003;67783;51.656;16.106;2024-01-30T21:19:13;14;13;10
77538;PMS7003;67783;51.656;16.106;2024-01-30T21:22:18;9;8;6
77538;PMS7003;67783;51.656;16.106;2024-01-30T21:25:20;15;11;7
77538;PMS7003;67783;51.656;16.106;2024-01-30T21:28:21;10;10;6
77538;PMS7003;67783;51.656;16.106;2024-01-30T21:31:23;19;14;12
77538;PMS7003;67783;51.656;16.106;2024-01-30T21:34:24;11;10;8
77538;PMS7003;67783;51.656;16.106;2024-01-30T21:44:32;12;11;8
77538;PMS7003;67783;51.656;16.106;2024-01-30T21:59:09;13;11;6
77538;PMS7003;67783;51.656;16.106;2024-01-30T22:19:28;7;7;5
77538;PMS7003;67783;51.656;16.106;2024-01-30T22:22:49;10;10;7
77538;PMS7003;67783;51.656;16.106;2024-01-30T22:26:28;10;9;6
77538;PMS7003;67783;51.656;16.106;2024-01-30T22:34:20;10;10;7
77538;PMS7003;67783;51.656;16.106;2024-01-30T22:48:12;12;12;8
77538;PMS7003;67783;51.656;16.106;2024-01-30T22:55:17;7;7;5
77538;PMS7003;67783;51.656;16.106;2024-01-30T22:58:04;10;8;7
77538;PMS7003;67783;51.656;16.106;2024-01-30T23:04:46;8;5;4
77538;PMS7003;67783;51.656;16.106;2024-01-30T23:11:49;13;8;6
77538;PMS7003;67783;51.656;16.106;2024-01-30T23:29:06;11;11;8
77538;PMS7003;67783;51.656;16.106;2024-01-30T23:39:07;10;9;6
77538;PMS7003;67783;51.656;16.106;2024-01-30T23:42:55;10;8;5
77538;PMS7003;67783;51.656;16.106;2024-01-30T23:46:11;12;9;7
77538;PMS7003;67783;51.656;16.106;2024-01-30T23:53:36;10;9;6
77538;PMS7003;67783;51.656;16.106;2024-01-30T23:56:47;12;9;6
